Time;durP1;ratioP1;P1;durP2;ratioP2;P2;SDS_P1;SDS_P2;PMS_P1;PMS_P2;Temp;Humidity;BMP_temperature;BMP_pressure;BME280_temperature;BME280_humidity;BME280_pressure;Samples;Min_cycle;Max_cycle;Signal;HPM_P1;HPM_P2
2023/03/24 00:01:56;;;;;;;29.02;17.38;;;10.10;99.90;;;;;;4972974;28;20085;-71
2023/03/24 00:04:23;;;;;;;30.65;20.10;;;10.10;99.90;;;;;;4965726;28;20031;-73
2023/03/24 00:06:51;;;;;;;29.58;20.08;;;10.10;99.90;;;;;;4970592;28;20038;-71
2023/03/24 00:09:17;;;;;;;26.80;18.10;;;10.00;99.90;;;;;;4959632;28;20471;-71
2023/03/24 00:11:44;;;;;;;35.25;20.60;;;10.10;99.90;;;;;;4963244;28;20022;-72
2023/03/24 00:14:11;;;;;;;33.53;20.88;;;10.00;99.90;;;;;;4970246;28;20036;-71
2023/03/24 00:16:41;;;;;;;26.25;17.90;;;10.00;99.90;;;;;;4970549;28;20033;-72
2023/03/24 00:19:12;;;;;;;29.20;20.10;;;9.90;99.90;;;;;;4977922;28;20037;-72
2023/03/24 00:21:38;;;;;;;37.28;19.98;;;9.90;99.90;;;;;;4962274;28;20057;-71
2023/03/24 00:24:06;;;;;;;27.45;18.98;;;9.80;99.90;;;;;;4973829;28;20052;-72
2023/03/24 00:26:36;;;;;;;29.17;20.08;;;9.80;99.90;;;;;;4964859;28;20035;-71
2023/03/24 00:29:03;;;;;;;39.58;23.95;;;9.80;99.90;;;;;;4948321;28;20086;-73
2023/03/24 00:31:30;;;;;;;31.35;19.52;;;9.70;99.90;;;;;;4956296;28;20066;-72
2023/03/24 00:33:57;;;;;;;33.67;22.67;;;9.70;99.90;;;;;;4968994;28;20023;-72
2023/03/24 00:36:25;;;;;;;43.22;25.42;;;9.60;99.90;;;;;;4956979;28;20033;-71
2023/03/24 00:38:51;;;;;;;33.35;22.88;;;9.50;99.90;;;;;;4949519;28;21409;-70
2023/03/24 00:41:19;;;;;;;40.08;25.52;;;9.40;99.90;;;;;;4973948;28;20023;-71
2023/03/24 00:43:46;;;;;;;32.42;24.05;;;9.40;99.90;;;;;;4969092;28;20162;-72
2023/03/24 00:46:27;;;;;;;35.45;24.33;;;9.30;99.90;;;;;;4973316;28;20077;-72
2023/03/24 00:49:01;;;;;;;41.70;25.60;;;9.30;99.90;;;;;;4956056;28;20145;-72
2023/03/24 00:51:30;;;;;;;45.17;24.52;;;9.30;99.90;;;;;;4953687;28;20483;-71
2023/03/24 00:53:56;;;;;;;36.45;24.17;;;9.20;99.90;;;;;;4952628;28;20097;-72
2023/03/24 00:56:28;;;;;;;36.72;21.83;;;9.20;99.90;;;;;;4971523;28;20583;-73
2023/03/24 00:58:56;;;;;;;42.33;25.42;;;9.20;99.90;;;;;;4968641;28;20490;-74
2023/03/24 01:01:28;;;;;;;36.53;23.27;;;9.20;99.90;;;;;;4955493;28;20077;-71
2023/03/24 01:03:55;;;;;;;41.97;30.27;;;9.30;99.90;;;;;;4972968;28;20046;-74
2023/03/24 01:06:23;;;;;;;40.92;28.08;;;9.20;99.90;;;;;;4955864;28;20474;-71
2023/03/24 01:08:52;;;;;;;47.67;29.48;;;9.20;99.90;;;;;;4971281;28;20038;-72
2023/03/24 01:11:21;;;;;;;42.42;27.85;;;9.20;99.90;;;;;;4973027;28;20497;-72
2023/03/24 01:13:47;;;;;;;55.80;36.30;;;9.10;99.90;;;;;;4973236;28;20156;-72
2023/03/24 01:16:14;;;;;;;55.90;37.40;;;9.10;99.90;;;;;;4972589;28;20518;-71
2023/03/24 01:18:41;;;;;;;46.88;32.05;;;9.10;99.90;;;;;;4973488;28;20034;-74
2023/03/24 01:21:09;;;;;;;54.47;36.47;;;8.90;99.90;;;;;;4972833;28;20073;-72
2023/03/24 01:23:36;;;;;;;61.25;36.03;;;8.80;99.90;;;;;;4973331;28;20039;-72
2023/03/24 01:26:06;;;;;;;50.42;34.28;;;8.80;99.90;;;;;;4972843;28;20015;-72
2023/03/24 01:28:38;;;;;;;67.85;45.97;;;8.80;99.90;;;;;;4973022;28;20058;-73
2023/03/24 01:31:05;;;;;;;67.60;44.53;;;8.80;99.90;;;;;;4969996;28;20023;-71
2023/03/24 01:33:31;;;;;;;65.35;43.58;;;8.70;99.90;;;;;;4962310;28;20034;-72
2023/03/24 01:35:57;;;;;;;55.97;38.58;;;8.70;99.90;;;;;;4972989;28;20050;-72
2023/03/24 01:38:23;;;;;;;68.13;46.28;;;8.60;99.90;;;;;;4955167;28;20108;-72
2023/03/24 01:40:49;;;;;;;63.55;43.15;;;8.70;99.90;;;;;;4972832;28;20030;-73
2023/03/24 01:43:29;;;;;;;56.72;39.50;;;8.60;99.90;;;;;;4955530;28;20045;-72
2023/03/24 01:46:13;;;;;;;66.88;42.58;;;8.70;99.90;;;;;;4972646;28;20030;-72
2023/03/24 01:48:59;;;;;;;;;;;8.60;99.90;;;;;;4955889;28;20066;-72
2023/03/24 01:51:37;;;;;;;71.72;47.28;;;8.70;99.90;;;;;;4955223;28;19910;-71
2023/03/24 01:54:34;;;;;;;70.30;44.95;;;8.60;99.90;;;;;;4972059;28;20031;-72
2023/03/24 01:57:07;;;;;;;58.22;42.30;;;8.60;99.90;;;;;;4961579;28;20027;-71
2023/03/24 01:59:45;;;;;;;64.50;44.50;;;8.60;99.90;;;;;;4954932;28;20026;-71
2023/03/24 02:02:41;;;;;;;72.85;47.50;;;8.60;99.90;;;;;;4972294;28;20038;-72
2023/03/24 02:05:10;;;;;;;72.35;47.78;;;8.50;99.90;;;;;;4955237;28;20045;-71
2023/03/24 02:07:46;;;;;;;74.57;47.13;;;8.60;99.90;;;;;;4955370;28;20386;-71
2023/03/24 02:10:16;;;;;;;68.55;48.78;;;8.50;99.90;;;;;;4955114;28;20019;-71
2023/03/24 02:12:43;;;;;;;72.78;48.13;;;8.40;99.90;;;;;;4972283;28;20031;-72
2023/03/24 02:15:11;;;;;;;77.70;51.55;;;8.30;99.90;;;;;;4955094;28;20074;-72
2023/03/24 02:18:06;;;;;;;80.85;54.38;;;8.30;99.90;;;;;;4970835;28;20096;-72
2023/03/24 02:20:58;;;;;;;78.68;53.45;;;8.10;99.90;;;;;;4957194;28;20057;-72
2023/03/24 02:24:02;;;;;;;78.65;53.08;;;8.20;99.90;;;;;;4958868;28;20066;-72
2023/03/24 02:26:46;;;;;;;;;;;8.10;99.90;;;;;;4959552;28;20045;-72
2023/03/24 02:29:28;;;;;;;88.00;61.42;;;8.00;99.90;;;;;;4964460;28;19913;-72
2023/03/24 02:32:21;;;;;;;81.35;56.50;;;8.00;99.90;;;;;;4958392;28;20122;-72
2023/03/24 02:35:17;;;;;;;68.97;47.25;;;8.00;99.90;;;;;;4975818;28;20030;-72
2023/03/24 02:38:02;;;;;;;74.18;49.22;;;8.00;99.90;;;;;;4965877;28;20422;-72
2023/03/24 02:40:34;;;;;;;66.25;45.28;;;8.10;99.90;;;;;;4958702;28;20038;-72
2023/03/24 02:43:07;;;;;;;58.10;42.38;;;8.10;99.90;;;;;;4958110;28;20042;-73
2023/03/24 02:45:34;;;;;;;63.92;39.35;;;8.00;99.90;;;;;;4958813;28;20057;-72
2023/03/24 02:48:05;;;;;;;68.80;45.13;;;8.10;99.90;;;;;;4958245;28;20451;-71
2023/03/24 02:50:40;;;;;;;60.70;43.55;;;7.90;99.90;;;;;;4958324;28;20035;-73
2023/03/24 02:53:21;;;;;;;41.22;29.02;;;7.80;99.90;;;;;;4968469;28;20027;-72
2023/03/24 02:56:28;;;;;;;45.70;33.20;;;7.90;99.90;;;;;;4975385;28;20482;-72
2023/03/24 02:59:05;;;;;;;;;;;8.00;99.90;;;;;;4948136;28;20060;-72
2023/03/24 03:01:57;;;;;;;48.72;37.03;;;8.10;99.90;;;;;;4973974;28;19914;-72
2023/03/24 03:04:44;;;;;;;48.50;34.63;;;8.00;99.90;;;;;;4934767;29;20161;-71
2023/03/24 03:07:15;;;;;;;50.67;36.67;;;8.10;99.90;;;;;;4919361;29;20032;-72
2023/03/24 03:09:58;;;;;;;53.53;34.22;;;8.00;99.90;;;;;;4934828;29;20039;-72
2023/03/24 03:12:29;;;;;;;57.05;38.17;;;8.00;99.90;;;;;;4918799;29;20111;-72
2023/03/24 03:15:01;;;;;;;50.45;36.40;;;8.00;99.90;;;;;;4918621;29;20070;-73
2023/03/24 03:17:33;;;;;;;55.95;41.83;;;8.00;99.90;;;;;;4934543;29;20094;-73
2023/03/24 03:20:25;;;;;;;55.33;39.15;;;8.00;99.90;;;;;;4918715;29;20555;-73
2023/03/24 03:22:59;;;;;;;74.78;43.55;;;8.00;99.90;;;;;;4859329;29;20050;-71
2023/03/24 03:25:32;;;;;;;62.60;43.95;;;7.90;99.90;;;;;;4828316;29;20041;-72
2023/03/24 03:28:02;;;;;;;70.75;47.60;;;7.70;99.90;;;;;;4859548;29;20033;-73
2023/03/24 03:30:40;;;;;;;65.75;46.75;;;7.60;99.90;;;;;;4858804;29;20041;-72
2023/03/24 03:33:33;;;;;;;65.60;46.47;;;7.50;99.90;;;;;;4843220;29;20030;-73
2023/03/24 03:36:14;;;;;;;72.45;48.58;;;7.40;99.90;;;;;;4859261;29;20063;-73
2023/03/24 03:39:09;;;;;;;69.80;47.45;;;7.40;99.90;;;;;;4858876;29;20117;-71
2023/03/24 03:41:37;;;;;;;69.55;47.65;;;7.30;99.90;;;;;;4872973;29;20196;-72
2023/03/24 03:44:03;;;;;;;65.55;47.17;;;7.30;99.90;;;;;;4880066;29;20550;-72
2023/03/24 03:46:29;;;;;;;69.72;46.95;;;7.20;99.90;;;;;;4887571;29;20123;-72
2023/03/24 03:48:56;;;;;;;67.32;45.88;;;7.20;99.90;;;;;;4879826;29;20060;-72
2023/03/24 03:51:23;;;;;;;68.45;46.78;;;7.20;99.90;;;;;;4896631;29;20039;-72
2023/03/24 03:54:00;;;;;;;65.40;43.95;;;7.20;99.90;;;;;;4878511;29;20047;-73
2023/03/24 03:56:30;;;;;;;68.88;46.53;;;7.30;99.90;;;;;;4896201;29;20064;-72
2023/03/24 03:59:32;;;;;;;104.72;63.28;;;7.30;99.90;;;;;;4899957;28;20080;-73
2023/03/24 04:02:25;;;;;;;67.30;46.97;;;7.30;99.90;;;;;;4976771;28;20062;-71
2023/03/24 04:04:52;;;;;;;74.60;49.65;;;7.30;99.90;;;;;;4941969;28;20031;-72
2023/03/24 04:07:51;;;;;;;72.65;49.15;;;7.30;99.90;;;;;;4956391;28;20035;-72
2023/03/24 04:11:01;;;;;;;75.15;50.83;;;7.30;99.90;;;;;;4954703;28;20186;-73
2023/03/24 04:13:46;;;;;;;77.00;49.28;;;7.40;99.90;;;;;;4964193;28;20454;-72
2023/03/24 04:16:59;;;;;;;68.45;47.03;;;7.30;99.90;;;;;;4972793;28;20046;-72
2023/03/24 04:19:36;;;;;;;83.75;48.40;;;7.10;99.90;;;;;;4947480;28;20067;-72
2023/03/24 04:22:40;;;;;;;67.38;47.88;;;7.10;99.90;;;;;;4974002;28;20027;-73
2023/03/24 04:25:33;;;;;;;72.38;46.20;;;7.10;99.90;;;;;;4956366;28;20038;-72
2023/03/24 04:28:17;;;;;;;72.15;46.20;;;7.10;99.90;;;;;;4972641;28;20035;-71
2023/03/24 04:30:46;;;;;;;66.15;45.38;;;7.10;99.90;;;;;;4956748;28;20444;-73
2023/03/24 04:33:37;;;;;;;60.35;42.78;;;7.30;99.90;;;;;;4956133;28;20372;-71
2023/03/24 04:36:21;;;;;;;64.15;41.53;;;7.30;99.90;;;;;;4956209;28;20498;-72
2023/03/24 04:39:15;;;;;;;80.80;50.75;;;7.30;99.90;;;;;;4876392;29;20140;-71
2023/03/24 04:41:48;;;;;;;75.75;49.33;;;7.40;99.90;;;;;;4861095;29;20378;-71
2023/03/24 04:44:24;;;;;;;84.78;55.25;;;7.40;99.90;;;;;;4860934;29;20049;-70
2023/03/24 04:47:27;;;;;;;72.68;44.97;;;7.50;99.90;;;;;;4839253;29;20065;-72
2023/03/24 04:50:11;;;;;;;76.13;52.72;;;7.60;99.90;;;;;;4824776;29;20046;-72
2023/03/24 04:52:38;;;;;;;67.13;46.85;;;7.90;99.90;;;;;;4837229;29;20038;-71
2023/03/24 04:55:23;;;;;;;59.22;41.08;;;8.20;99.90;;;;;;4824326;29;20090;-72
2023/03/24 04:57:50;;;;;;;60.75;41.47;;;8.50;99.90;;;;;;4838405;29;20417;-73
2023/03/24 05:00:17;;;;;;;54.28;41.03;;;8.80;99.90;;;;;;4824372;29;20026;-72
2023/03/24 05:02:44;;;;;;;51.42;37.90;;;8.90;99.90;;;;;;4838618;29;20042;-72
2023/03/24 05:05:16;;;;;;;57.72;36.55;;;8.90;99.90;;;;;;4839455;29;20029;-72
2023/03/24 05:07:45;;;;;;;56.58;38.47;;;9.00;99.90;;;;;;4838847;29;20034;-71
2023/03/24 05:10:18;;;;;;;58.10;40.80;;;9.30;99.90;;;;;;4823564;29;20081;-72
2023/03/24 05:12:51;;;;;;;67.15;45.47;;;9.60;99.90;;;;;;4823769;29;20523;-70
2023/03/24 05:15:36;;;;;;;44.65;30.38;;;9.80;99.90;;;;;;4849839;29;20092;-73
2023/03/24 05:18:34;;;;;;;41.58;31.15;;;10.00;99.90;;;;;;4821066;29;20042;-71
2023/03/24 05:21:00;;;;;;;38.78;29.23;;;10.20;99.90;;;;;;4808675;29;20026;-72
2023/03/24 05:23:26;;;;;;;37.65;27.10;;;10.70;99.90;;;;;;4837675;29;20140;-74
2023/03/24 05:25:54;;;;;;;45.28;29.33;;;11.20;99.90;;;;;;4842374;29;20036;-71
2023/03/24 05:28:22;;;;;;;38.28;26.23;;;11.80;99.90;;;;;;4842040;29;20074;-73
2023/03/24 05:30:49;;;;;;;38.33;26.52;;;12.50;99.90;;;;;;4857462;29;20085;-73
2023/03/24 05:33:40;;;;;;;48.60;31.25;;;13.10;99.90;;;;;;4843036;29;20033;-73
2023/03/24 05:36:10;;;;;;;46.13;32.60;;;13.20;99.90;;;;;;4872802;29;20025;-73
2023/03/24 05:38:37;;;;;;;53.15;36.42;;;13.70;99.90;;;;;;4872708;29;20525;-72
2023/03/24 05:41:04;;;;;;;43.10;33.00;;;13.80;99.60;;;;;;4841491;29;20064;-70
2023/03/24 05:43:34;;;;;;;46.75;32.22;;;13.90;99.20;;;;;;4841989;29;20045;-74
2023/03/24 05:46:08;;;;;;;57.13;33.45;;;14.30;98.50;;;;;;4836053;29;20048;-73
2023/03/24 05:48:34;;;;;;;48.35;32.13;;;14.60;97.80;;;;;;4841801;29;20101;-74
2023/03/24 05:51:11;;;;;;;47.58;29.35;;;14.80;97.20;;;;;;4842108;29;20137;-73
2023/03/24 05:53:37;;;;;;;44.50;27.10;;;14.00;97.50;;;;;;4874235;28;20506;-73
2023/03/24 05:56:17;;;;;;;41.17;28.75;;;13.60;98.80;;;;;;4974319;28;20031;-74
2023/03/24 05:58:54;;;;;;;50.47;30.67;;;13.10;99.60;;;;;;4971961;28;20142;-72
2023/03/24 06:01:24;;;;;;;44.47;28.75;;;12.80;99.90;;;;;;4969520;28;20050;-72
2023/03/24 06:03:56;;;;;;;41.97;26.88;;;12.60;99.90;;;;;;4959212;28;20035;-73
2023/03/24 06:06:22;;;;;;;40.25;23.88;;;12.50;99.90;;;;;;4958856;28;20034;-72
2023/03/24 06:08:48;;;;;;;34.40;24.85;;;12.40;99.90;;;;;;4959070;28;20031;-72
2023/03/24 06:11:16;;;;;;;36.83;24.33;;;12.40;99.90;;;;;;4959197;28;20042;-72
2023/03/24 06:13:52;;;;;;;40.08;22.33;;;12.30;99.90;;;;;;4958787;28;20035;-72
2023/03/24 06:16:22;;;;;;;37.15;23.20;;;12.40;99.90;;;;;;4955675;28;20027;-73
2023/03/24 06:18:54;;;;;;;33.30;24.42;;;12.50;99.90;;;;;;4954664;28;20487;-73
2023/03/24 06:21:40;;;;;;;38.75;23.70;;;12.60;99.90;;;;;;4975849;28;20113;-73
2023/03/24 06:24:06;;;;;;;40.92;21.38;;;12.50;99.90;;;;;;4958678;28;20050;-72
2023/03/24 06:26:33;;;;;;;39.00;21.58;;;12.60;99.90;;;;;;4958607;28;20023;-72
2023/03/24 06:29:01;;;;;;;39.65;24.88;;;12.60;99.90;;;;;;4958573;28;20061;-72
2023/03/24 06:31:33;;;;;;;40.55;24.00;;;12.70;99.90;;;;;;4958641;28;20023;-71
2023/03/24 06:34:00;;;;;;;42.55;24.20;;;12.90;99.90;;;;;;4957525;28;20466;-71
2023/03/24 06:36:26;;;;;;;36.67;24.70;;;13.10;99.90;;;;;;4974856;28;20122;-71
2023/03/24 06:38:52;;;;;;;32.03;23.73;;;13.20;99.90;;;;;;4958500;28;20069;-72
2023/03/24 06:41:20;;;;;;;39.75;25.17;;;13.30;99.90;;;;;;4974561;28;20390;-71
2023/03/24 06:43:50;;;;;;;42.80;27.83;;;13.50;99.90;;;;;;4972619;28;20062;-73
2023/03/24 06:46:16;;;;;;;36.70;23.83;;;13.50;99.90;;;;;;4958599;28;20552;-74
2023/03/24 06:48:45;;;;;;;34.15;23.27;;;13.40;99.90;;;;;;4974169;28;20125;-74
2023/03/24 06:51:11;;;;;;;32.17;22.75;;;13.60;99.90;;;;;;4960639;28;20481;-74
2023/03/24 06:53:40;;;;;;;44.83;23.67;;;13.90;99.90;;;;;;4983549;28;20042;-73
2023/03/24 06:56:07;;;;;;;28.48;17.63;;;14.00;99.90;;;;;;4958113;28;20509;-71
2023/03/24 06:58:43;;;;;;;29.05;18.83;;;14.00;99.80;;;;;;4958521;28;20042;-73
2023/03/24 07:01:15;;;;;;;30.27;16.92;;;13.90;99.90;;;;;;4957379;28;20130;-72
2023/03/24 07:04:03;;;;;;;34.70;18.70;;;13.60;99.30;;;;;;4975269;28;20093;-72
2023/03/24 07:06:49;;;;;;;28.40;16.65;;;13.70;99.90;;;;;;4946873;28;20035;-72
2023/03/24 07:09:17;;;;;;;28.20;15.35;;;13.70;99.90;;;;;;4975591;28;20050;-70
2023/03/24 07:11:43;;;;;;;28.15;16.67;;;13.80;99.90;;;;;;4958034;28;20394;-73
2023/03/24 07:14:09;;;;;;;27.52;16.90;;;14.10;99.90;;;;;;4957230;28;20039;-71
2023/03/24 07:16:35;;;;;;;32.72;17.15;;;14.40;99.90;;;;;;4955625;28;20160;-72
2023/03/24 07:19:33;;;;;;;34.90;18.40;;;14.60;99.60;;;;;;4956688;28;20039;-72
2023/03/24 07:22:17;;;;;;;28.48;16.67;;;14.90;99.90;;;;;;4974126;28;20031;-72
2023/03/24 07:25:05;;;;;;;23.38;16.00;;;14.60;97.20;;;;;;4975138;28;20131;-73
2023/03/24 07:27:45;;;;;;;30.25;17.02;;;14.90;96.80;;;;;;4945474;28;20038;-72
2023/03/24 07:30:12;;;;;;;28.27;17.00;;;15.30;96.80;;;;;;4957508;28;20027;-72
2023/03/24 07:32:41;;;;;;;29.65;17.90;;;15.50;96.40;;;;;;4957560;28;20038;-70
2023/03/24 07:35:12;;;;;;;32.50;16.67;;;15.60;95.50;;;;;;4958094;28;20035;-70
2023/03/24 07:37:38;;;;;;;30.58;17.25;;;15.60;94.90;;;;;;4973603;28;20123;-72
2023/03/24 07:40:08;;;;;;;31.83;18.15;;;15.60;95.20;;;;;;4957146;28;20054;-70
2023/03/24 07:42:34;;;;;;;28.63;18.95;;;15.90;94.90;;;;;;4957781;28;20030;-72
2023/03/24 07:45:27;;;;;;;31.80;18.30;;;16.10;93.80;;;;;;4952089;28;20046;-72
2023/03/24 07:47:56;;;;;;;27.48;18.70;;;16.20;95.10;;;;;;4973262;28;20398;-71
2023/03/24 07:50:22;;;;;;;30.13;19.75;;;16.50;95.30;;;;;;4957217;28;20031;-72
2023/03/24 07:52:49;;;;;;;34.60;18.40;;;16.70;94.20;;;;;;4972321;28;20037;-72
2023/03/24 07:55:17;;;;;;;22.48;15.70;;;16.70;93.60;;;;;;4957722;28;20023;-72
2023/03/24 07:57:54;;;;;;;31.15;16.80;;;16.70;92.00;;;;;;4974471;28;20058;-71
2023/03/24 08:00:25;;;;;;;25.23;17.63;;;16.70;92.20;;;;;;4957529;28;20034;-72
2023/03/24 08:03:14;;;;;;;28.50;17.02;;;16.80;91.40;;;;;;4895938;29;20087;-73
2023/03/24 08:05:46;;;;;;;31.90;16.98;;;17.10;92.80;;;;;;4896064;29;20032;-72
2023/03/24 08:08:20;;;;;;;30.30;18.77;;;16.80;92.10;;;;;;4896333;28;20048;-72
2023/03/24 08:10:49;;;;;;;32.65;20.30;;;17.10;92.90;;;;;;4895599;29;20060;-73
2023/03/24 08:13:15;;;;;;;30.27;17.88;;;17.40;94.20;;;;;;4895968;29;20032;-72
2023/03/24 08:15:41;;;;;;;26.25;16.77;;;17.40;91.70;;;;;;4896267;29;20115;-74
2023/03/24 08:18:07;;;;;;;27.13;16.77;;;17.20;91.80;;;;;;4895098;29;20124;-72
2023/03/24 08:20:33;;;;;;;33.45;16.83;;;17.40;91.50;;;;;;4895266;29;20045;-72
2023/03/24 08:22:59;;;;;;;28.15;16.70;;;17.50;92.30;;;;;;4895445;29;20044;-74
2023/03/24 08:25:26;;;;;;;28.40;18.33;;;17.80;93.00;;;;;;4895809;29;20048;-71
2023/03/24 08:27:52;;;;;;;29.83;18.38;;;18.00;92.70;;;;;;4895907;29;20040;-72
2023/03/24 08:30:21;;;;;;;28.02;18.52;;;18.20;92.90;;;;;;4895819;29;20083;-73
2023/03/24 08:32:50;;;;;;;28.75;17.45;;;18.00;90.90;;;;;;4895144;29;20036;-73
2023/03/24 08:35:20;;;;;;;30.83;18.42;;;18.10;91.80;;;;;;4895470;29;20566;-72
2023/03/24 08:37:46;;;;;;;24.77;15.85;;;18.30;91.70;;;;;;4895507;29;20143;-72
2023/03/24 08:40:17;;;;;;;37.75;17.92;;;18.20;90.20;;;;;;4929183;28;20106;-72
2023/03/24 08:42:47;;;;;;;29.13;17.13;;;18.20;90.00;;;;;;4972451;28;20086;-72
2023/03/24 08:45:12;;;;;;;29.20;14.95;;;18.50;91.80;;;;;;4973499;28;20101;-72
2023/03/24 08:47:39;;;;;;;25.35;17.17;;;18.20;92.20;;;;;;4973716;28;20065;-71
2023/03/24 08:50:07;;;;;;;24.70;16.27;;;18.40;90.70;;;;;;4956318;28;20387;-73
2023/03/24 08:52:33;;;;;;;28.90;16.20;;;18.30;89.10;;;;;;4972083;28;20051;-73
2023/03/24 08:54:59;;;;;;;28.10;15.50;;;18.70;89.60;;;;;;4962882;28;20035;-72
2023/03/24 08:57:25;;;;;;;24.02;15.13;;;18.90;89.50;;;;;;4973614;28;20118;-72
2023/03/24 08:59:51;;;;;;;31.77;15.85;;;19.10;88.80;;;;;;4973921;28;20102;-72
2023/03/24 09:02:17;;;;;;;22.30;14.00;;;19.40;90.90;;;;;;4973305;28;20027;-70
2023/03/24 09:04:44;;;;;;;18.02;12.38;;;19.30;84.70;;;;;;4971182;28;20482;-71
2023/03/24 09:07:11;;;;;;;21.25;12.40;;;19.40;84.30;;;;;;4973751;28;20379;-73
2023/03/24 09:09:38;;;;;;;24.27;13.07;;;19.60;84.30;;;;;;4971938;28;20023;-72
2023/03/24 09:12:04;;;;;;;30.77;13.88;;;19.50;84.10;;;;;;4971664;28;20023;-73
2023/03/24 09:14:30;;;;;;;17.77;11.77;;;19.70;84.10;;;;;;4973732;28;20436;-73
2023/03/24 09:16:56;;;;;;;22.13;12.07;;;19.70;83.90;;;;;;4972975;28;20031;-73
2023/03/24 09:19:22;;;;;;;22.58;11.32;;;20.00;83.00;;;;;;4973318;28;20023;-73
2023/03/24 09:21:48;;;;;;;28.13;10.13;;;20.10;87.40;;;;;;4973270;28;20062;-73
2023/03/24 09:24:14;;;;;;;19.42;11.13;;;20.10;80.50;;;;;;4970947;28;20029;-71
2023/03/24 09:26:40;;;;;;;18.30;9.82;;;20.20;82.00;;;;;;4973138;28;20027;-71
2023/03/24 09:29:07;;;;;;;16.00;8.13;;;20.20;80.50;;;;;;4972960;28;20022;-73
2023/03/24 09:31:33;;;;;;;21.23;8.75;;;20.60;81.70;;;;;;4973334;28;20508;-74
2023/03/24 09:33:59;;;;;;;13.82;7.85;;;20.60;83.80;;;;;;4972443;28;20471;-74
2023/03/24 09:36:25;;;;;;;13.13;7.55;;;20.30;79.60;;;;;;4971566;28;20030;-74
2023/03/24 09:38:51;;;;;;;15.50;6.93;;;20.20;78.30;;;;;;4972987;28;20089;-74
2023/03/24 09:41:24;;;;;;;14.30;6.88;;;20.30;80.60;;;;;;4973053;28;20054;-70
2023/03/24 09:43:58;;;;;;;13.45;7.00;;;20.50;79.00;;;;;;4972359;28;20450;-72
2023/03/24 09:46:34;;;;;;;14.00;8.35;;;20.70;80.70;;;;;;4969469;28;20023;-72
2023/03/24 09:49:01;;;;;;;14.30;7.93;;;20.80;80.60;;;;;;4972923;28;20042;-72
2023/03/24 09:51:30;;;;;;;15.50;7.68;;;20.90;78.20;;;;;;4972715;28;20027;-73
2023/03/24 09:54:15;;;;;;;10.85;7.00;;;21.00;79.20;;;;;;4973171;28;20034;-69
2023/03/24 09:56:44;;;;;;;12.38;7.30;;;21.00;79.50;;;;;;4969757;28;20094;-72
2023/03/24 09:59:16;;;;;;;12.95;7.40;;;21.00;78.10;;;;;;4972486;28;20053;-70
2023/03/24 10:01:42;;;;;;;13.68;7.50;;;21.30;78.40;;;;;;4973061;28;20026;-72
2023/03/24 10:04:18;;;;;;;14.20;7.05;;;21.50;77.80;;;;;;4972797;28;20046;-74
2023/03/24 10:06:47;;;;;;;13.75;6.45;;;21.50;76.90;;;;;;4970485;28;20391;-70
2023/03/24 10:09:19;;;;;;;15.68;7.15;;;21.50;75.80;;;;;;4972538;28;20023;-71
2023/03/24 10:12:19;;;;;;;11.10;6.78;;;21.70;76.70;;;;;;4972638;28;20355;-72
2023/03/24 10:15:13;;;;;;;8.50;4.43;;;21.70;76.50;;;;;;4962193;28;20475;-72
2023/03/24 10:17:55;;;;;;;14.45;5.15;;;21.70;72.70;;;;;;4970586;28;20058;-73
2023/03/24 10:20:42;;;;;;;10.73;5.20;;;21.90;76.90;;;;;;4972616;28;20039;-74
2023/03/24 10:23:43;;;;;;;7.60;4.47;;;22.00;72.90;;;;;;4972342;28;20042;-70
2023/03/24 10:26:31;;;;;;;7.72;4.78;;;21.70;71.70;;;;;;4962281;28;20034;-71
2023/03/24 10:29:12;;;;;;;9.95;4.82;;;22.00;73.60;;;;;;4969536;28;20070;-72
2023/03/24 10:31:38;;;;;;;9.02;5.07;;;22.10;73.90;;;;;;4972501;28;20509;-71
2023/03/24 10:34:08;;;;;;;7.30;4.60;;;22.20;76.60;;;;;;4972440;28;20079;-72
2023/03/24 10:36:34;;;;;;;11.90;6.35;;;22.30;75.80;;;;;;4972001;28;20109;-71
2023/03/24 10:39:00;;;;;;;8.02;5.15;;;22.30;75.40;;;;;;4971056;28;20089;-70
2023/03/24 10:41:28;;;;;;;11.95;4.97;;;22.40;73.30;;;;;;4974363;28;20031;-70
2023/03/24 10:43:56;;;;;;;8.70;4.90;;;22.20;72.30;;;;;;4976378;28;20122;-74
2023/03/24 10:46:25;;;;;;;10.38;5.22;;;22.40;75.40;;;;;;4975435;28;20035;-70
2023/03/24 10:48:53;;;;;;;10.30;4.53;;;22.40;75.10;;;;;;4974495;28;20442;-73
2023/03/24 10:51:30;;;;;;;7.65;4.70;;;22.80;76.90;;;;;;4975717;28;20065;-73
2023/03/24 10:54:22;;;;;;;7.25;3.75;;;22.60;73.00;;;;;;4987539;28;20077;-71
2023/03/24 10:56:57;;;;;;;5.85;3.55;;;22.60;72.20;;;;;;4965759;28;20426;-72
2023/03/24 10:59:30;;;;;;;5.28;3.17;;;22.70;70.90;;;;;;4948841;28;20058;-72
2023/03/24 11:02:08;;;;;;;9.20;3.55;;;22.80;70.10;;;;;;4973160;28;20031;-72
2023/03/24 11:04:40;;;;;;;14.32;2.97;;;22.80;70.90;;;;;;4967779;28;20344;-72
2023/03/24 11:07:15;;;;;;;3.13;2.28;;;22.80;71.20;;;;;;4971076;28;20030;-72
2023/03/24 11:09:46;;;;;;;6.75;2.80;;;22.80;69.70;;;;;;4974682;28;20054;-70
2023/03/24 11:12:27;;;;;;;2.75;2.22;;;22.90;70.20;;;;;;4963949;28;20102;-72
2023/03/24 11:15:21;;;;;;;4.95;2.08;;;23.00;67.90;;;;;;4966777;28;20027;-72
2023/03/24 11:18:10;;;;;;;4.18;2.08;;;23.00;69.90;;;;;;4968105;28;20045;-72
2023/03/24 11:20:44;;;;;;;2.85;2.10;;;23.00;67.90;;;;;;4975531;28;20046;-71
2023/03/24 11:23:28;;;;;;;4.85;2.10;;;23.00;68.20;;;;;;4971277;28;20038;-70
2023/03/24 11:26:08;;;;;;;4.22;2.33;;;23.00;68.80;;;;;;4972968;28;20125;-71
2023/03/24 11:28:38;;;;;;;4.47;2.90;;;23.00;68.70;;;;;;4974895;28;20069;-71
2023/03/24 11:31:10;;;;;;;6.43;2.85;;;23.20;67.80;;;;;;4975485;28;20053;-71
2023/03/24 11:33:48;;;;;;;7.13;3.47;;;23.30;69.20;;;;;;4975039;28;20019;-72
2023/03/24 11:36:31;;;;;;;4.95;2.95;;;23.30;70.00;;;;;;4971475;28;20035;-73
2023/03/24 11:39:00;;;;;;;7.80;2.95;;;23.30;69.10;;;;;;4972350;28;20049;-73
2023/03/24 11:41:26;;;;;;;5.63;3.28;;;23.30;69.20;;;;;;4973298;28;20037;-71
2023/03/24 11:44:17;;;;;;;5.50;3.30;;;23.30;69.50;;;;;;4974252;28;20035;-71
2023/03/24 11:46:47;;;;;;;5.90;2.78;;;23.40;70.80;;;;;;4957638;28;20034;-72
2023/03/24 11:49:17;;;;;;;6.72;3.13;;;23.50;69.60;;;;;;4974152;28;20494;-72
2023/03/24 11:51:48;;;;;;;9.27;4.10;;;23.60;69.30;;;;;;4969602;28;20023;-73
2023/03/24 11:54:17;;;;;;;4.50;3.25;;;23.60;70.60;;;;;;4969694;28;20114;-71
2023/03/24 11:56:52;;;;;;;7.70;3.10;;;23.60;70.70;;;;;;4974778;28;20490;-72
2023/03/24 11:59:24;;;;;;;5.38;3.60;;;23.70;69.40;;;;;;4974248;28;20085;-72
2023/03/24 12:02:11;;;;;;;7.38;3.45;;;23.90;72.70;;;;;;4973420;28;20474;-70
2023/03/24 12:04:52;;;;;;;5.13;3.35;;;23.60;67.80;;;;;;4972711;28;20073;-72
2023/03/24 12:07:40;;;;;;;5.93;3.83;;;23.70;68.60;;;;;;4973682;28;20022;-71
2023/03/24 12:10:28;;;;;;;7.72;3.50;;;23.80;69.20;;;;;;4971815;28;20033;-70
2023/03/24 12:13:15;;;;;;;6.35;3.35;;;23.80;67.40;;;;;;4972424;28;20034;-70
2023/03/24 12:15:51;;;;;;;7.57;3.50;;;23.80;70.80;;;;;;4969446;28;20038;-71
2023/03/24 12:18:50;;;;;;;10.85;3.47;;;23.90;70.20;;;;;;4968825;28;20093;-69
2023/03/24 12:21:32;;;;;;;8.68;3.70;;;23.90;69.20;;;;;;4963675;28;20050;-72
2023/03/24 12:24:10;;;;;;;6.25;3.55;;;23.90;69.10;;;;;;4970424;28;20035;-72
2023/03/24 12:26:38;;;;;;;8.05;3.60;;;23.90;70.80;;;;;;4972655;28;20395;-72
2023/03/24 12:29:22;;;;;;;6.32;3.10;;;24.00;71.00;;;;;;4971832;28;20483;-72
2023/03/24 12:31:55;;;;;;;5.78;3.20;;;24.00;68.40;;;;;;4969705;28;20499;-73
2023/03/24 12:34:41;;;;;;;7.53;3.83;;;23.90;66.70;;;;;;4967831;28;20037;-72
2023/03/24 12:37:49;;;;;;;11.25;3.70;;;23.90;69.60;;;;;;4971972;28;20047;-72
2023/03/24 12:40:36;;;;;;;6.68;3.30;;;23.90;68.50;;;;;;4895710;29;20088;-70
2023/03/24 12:43:29;;;;;;;6.38;3.17;;;24.00;70.70;;;;;;4895137;29;20092;-73
2023/03/24 12:45:59;;;;;;;8.30;3.55;;;24.00;68.20;;;;;;4895321;29;20657;-74
2023/03/24 12:48:48;;;;;;;5.40;3.03;;;24.10;70.90;;;;;;4894958;29;20024;-70
2023/03/24 12:51:25;;;;;;;12.20;3.42;;;24.00;70.20;;;;;;4895023;29;20553;-72
2023/03/24 12:54:17;;;;;;;19.48;5.05;;;23.90;69.70;;;;;;4895362;29;20397;-72
2023/03/24 12:57:03;;;;;;;4.93;3.33;;;23.90;72.30;;;;;;4895124;29;20529;-73
2023/03/24 12:59:39;;;;;;;5.32;3.03;;;24.00;67.80;;;;;;4895358;29;20045;-73
2023/03/24 13:02:31;;;;;;;11.38;3.88;;;23.90;67.10;;;;;;4895178;29;20042;-70
2023/03/24 13:05:04;;;;;;;5.32;3.22;;;24.00;68.40;;;;;;4894492;29;20127;-72
2023/03/24 13:07:42;;;;;;;8.20;3.67;;;24.10;71.80;;;;;;4895118;29;20212;-72
2023/03/24 13:10:26;;;;;;;9.70;4.65;;;24.20;71.10;;;;;;4895367;29;20045;-73
2023/03/24 13:12:55;;;;;;;7.43;3.58;;;24.20;69.20;;;;;;4895208;29;20067;-72
2023/03/24 13:15:32;;;;;;;4.93;3.22;;;24.20;71.10;;;;;;4894750;29;20515;-73